sensor_id;sensor_type;location;lat;lon;timestamp;P1;durP1;ratioP1;P2;durP2;ratioP2
12762;SDS011;6445;52.490;13.378;2024-01-16T00:01:03;4.32;;;2.10;;
12762;SDS011;6445;52.490;13.378;2024-01-16T00:03:28;6.93;;;2.20;;
12762;SDS011;6445;52.490;13.378;2024-01-16T00:05:53;4.13;;;2.20;;
12762;SDS011;6445;52.490;13.378;2024-01-16T00:08:18;4.65;;;2.33;;
12762;SDS011;6445;52.490;13.378;2024-01-16T00:10:44;5.63;;;2.13;;
12762;SDS011;6445;52.490;13.378;2024-01-16T00:13:09;4.68;;;2.40;;
12762;SDS011;6445;52.490;13.378;2024-01-16T00:15:34;5.43;;;2.20;;
12762;SDS011;6445;52.490;13.378;2024-01-16T00:18:00;6.28;;;2.00;;
12762;SDS011;6445;52.490;13.378;2024-01-16T00:20:25;3.55;;;1.92;;
12762;SDS011;6445;52.490;13.378;2024-01-16T00:22:50;5.13;;;2.00;;
12762;SDS011;6445;52.490;13.378;2024-01-16T00:25:16;3.92;;;2.00;;
12762;SDS011;6445;52.490;13.378;2024-01-16T00:27:44;3.72;;;2.28;;
12762;SDS011;6445;52.490;13.378;2024-01-16T00:30:10;5.53;;;2.60;;
12762;SDS011;6445;52.490;13.378;2024-01-16T00:32:36;4.35;;;2.22;;
12762;SDS011;6445;52.490;13.378;2024-01-16T00:35:01;6.13;;;2.67;;
12762;SDS011;6445;52.490;13.378;2024-01-16T00:37:26;5.68;;;2.35;;
12762;SDS011;6445;52.490;13.378;2024-01-16T00:39:51;3.85;;;2.47;;
12762;SDS011;6445;52.490;13.378;2024-01-16T00:42:17;5.22;;;2.60;;
12762;SDS011;6445;52.490;13.378;2024-01-16T00:44:42;7.25;;;2.80;;
12762;SDS011;6445;52.490;13.378;2024-01-16T00:47:07;4.38;;;2.40;;
12762;SDS011;6445;52.490;13.378;2024-01-16T00:49:32;7.53;;;2.40;;
12762;SDS011;6445;52.490;13.378;2024-01-16T00:51:58;8.13;;;3.15;;
12762;SDS011;6445;52.490;13.378;2024-01-16T00:54:23;9.00;;;2.80;;
12762;SDS011;6445;52.490;13.378;2024-01-16T00:56:48;3.78;;;2.45;;
12762;SDS011;6445;52.490;13.378;2024-01-16T00:59:13;6.00;;;2.55;;
12762;SDS011;6445;52.490;13.378;2024-01-16T01:01:39;4.50;;;2.30;;
12762;SDS011;6445;52.490;13.378;2024-01-16T01:04:04;6.47;;;2.50;;
12762;SDS011;6445;52.490;13.378;2024-01-16T01:06:29;4.85;;;2.80;;
12762;SDS011;6445;52.490;13.378;2024-01-16T01:08:55;5.95;;;2.28;;
12762;SDS011;6445;52.490;13.378;2024-01-16T01:11:20;5.20;;;2.63;;
12762;SDS011;6445;52.490;13.378;2024-01-16T01:13:45;3.80;;;2.05;;
12762;SDS011;6445;52.490;13.378;2024-01-16T01:16:11;5.65;;;2.38;;
12762;SDS011;6445;52.490;13.378;2024-01-16T01:18:36;5.55;;;2.30;;
12762;SDS011;6445;52.490;13.378;2024-01-16T01:21:01;3.85;;;1.88;;
12762;SDS011;6445;52.490;13.378;2024-01-16T01:23:26;4.85;;;2.05;;
12762;SDS011;6445;52.490;13.378;2024-01-16T01:25:52;2.20;;;1.60;;
12762;SDS011;6445;52.490;13.378;2024-01-16T01:28:17;3.00;;;1.60;;
12762;SDS011;6445;52.490;13.378;2024-01-16T01:30:42;6.00;;;1.80;;
12762;SDS011;6445;52.490;13.378;2024-01-16T01:33:08;3.38;;;1.58;;
12762;SDS011;6445;52.490;13.378;2024-01-16T01:35:33;4.57;;;1.70;;
12762;SDS011;6445;52.490;13.378;2024-01-16T01:37:58;3.40;;;1.63;;
12762;SDS011;6445;52.490;13.378;2024-01-16T01:40:24;3.70;;;1.38;;
12762;SDS011;6445;52.490;13.378;2024-01-16T01:42:49;4.30;;;1.67;;
12762;SDS011;6445;52.490;13.378;2024-01-16T01:45:14;2.83;;;1.35;;
12762;SDS011;6445;52.490;13.378;2024-01-16T01:47:40;3.65;;;1.50;;
12762;SDS011;6445;52.490;13.378;2024-01-16T01:50:09;1.85;;;1.33;;
12762;SDS011;6445;52.490;13.378;2024-01-16T01:52:35;3.65;;;1.55;;
12762;SDS011;6445;52.490;13.378;2024-01-16T01:55:03;1.92;;;1.23;;
12762;SDS011;6445;52.490;13.378;2024-01-16T01:57:29;2.40;;;1.30;;
12762;SDS011;6445;52.490;13.378;2024-01-16T01:59:54;3.53;;;1.70;;
12762;SDS011;6445;52.490;13.378;2024-01-16T02:02:20;3.55;;;1.70;;
12762;SDS011;6445;52.490;13.378;2024-01-16T02:04:46;2.65;;;1.58;;
12762;SDS011;6445;52.490;13.378;2024-01-16T02:07:12;4.25;;;1.52;;
12762;SDS011;6445;52.490;13.378;2024-01-16T02:09:37;4.00;;;1.90;;
12762;SDS011;6445;52.490;13.378;2024-01-16T02:12:03;3.35;;;1.50;;
12762;SDS011;6445;52.490;13.378;2024-01-16T02:14:29;4.00;;;1.67;;
12762;SDS011;6445;52.490;13.378;2024-01-16T02:16:54;7.50;;;2.80;;
12762;SDS011;6445;52.490;13.378;2024-01-16T02:19:20;4.80;;;2.72;;
12762;SDS011;6445;52.490;13.378;2024-01-16T02:21:48;4.25;;;2.33;;
12762;SDS011;6445;52.490;13.378;2024-01-16T02:24:16;3.35;;;1.60;;
12762;SDS011;6445;52.490;13.378;2024-01-16T02:26:43;3.97;;;1.92;;
12762;SDS011;6445;52.490;13.378;2024-01-16T02:29:08;5.88;;;2.22;;
12762;SDS011;6445;52.490;13.378;2024-01-16T02:31:34;4.97;;;1.70;;
12762;SDS011;6445;52.490;13.378;2024-01-16T02:34:00;2.13;;;1.42;;
12762;SDS011;6445;52.490;13.378;2024-01-16T02:36:25;2.97;;;1.80;;
12762;SDS011;6445;52.490;13.378;2024-01-16T02:38:52;2.08;;;1.63;;
12762;SDS011;6445;52.490;13.378;2024-01-16T02:41:17;2.58;;;1.75;;
12762;SDS011;6445;52.490;13.378;2024-01-16T02:43:43;3.63;;;1.73;;
12762;SDS011;6445;52.490;13.378;2024-01-16T02:46:08;4.80;;;1.92;;
12762;SDS011;6445;52.490;13.378;2024-01-16T02:48:34;4.28;;;1.85;;
12762;SDS011;6445;52.490;13.378;2024-01-16T02:51:00;4.88;;;1.90;;
12762;SDS011;6445;52.490;13.378;2024-01-16T02:53:25;4.07;;;2.00;;
12762;SDS011;6445;52.490;13.378;2024-01-16T02:55:53;4.78;;;2.30;;
12762;SDS011;6445;52.490;13.378;2024-01-16T02:58:18;7.07;;;2.30;;
12762;SDS011;6445;52.490;13.378;2024-01-16T03:00:43;4.63;;;2.63;;
12762;SDS011;6445;52.490;13.378;2024-01-16T03:03:08;4.90;;;2.63;;
12762;SDS011;6445;52.490;13.378;2024-01-16T03:05:34;3.38;;;2.10;;
12762;SDS011;6445;52.490;13.378;2024-01-16T03:07:59;1.92;;;1.73;;
12762;SDS011;6445;52.490;13.378;2024-01-16T03:10:24;4.50;;;2.00;;
12762;SDS011;6445;52.490;13.378;2024-01-16T03:12:50;4.13;;;2.13;;
12762;SDS011;6445;52.490;13.378;2024-01-16T03:15:15;3.88;;;2.20;;
12762;SDS011;6445;52.490;13.378;2024-01-16T03:17:40;2.85;;;2.00;;
12762;SDS011;6445;52.490;13.378;2024-01-16T03:20:06;4.55;;;2.38;;
12762;SDS011;6445;52.490;13.378;2024-01-16T03:22:31;6.50;;;2.20;;
12762;SDS011;6445;52.490;13.378;2024-01-16T03:24:57;7.30;;;2.92;;
12762;SDS011;6445;52.490;13.378;2024-01-16T03:27:22;4.60;;;2.70;;
12762;SDS011;6445;52.490;13.378;2024-01-16T03:29:47;4.78;;;2.55;;
12762;SDS011;6445;52.490;13.378;2024-01-16T03:32:12;5.18;;;2.92;;
12762;SDS011;6445;52.490;13.378;2024-01-16T03:34:39;5.65;;;3.17;;
12762;SDS011;6445;52.490;13.378;2024-01-16T03:37:05;5.03;;;3.20;;
12762;SDS011;6445;52.490;13.378;2024-01-16T03:39:30;5.65;;;2.80;;
12762;SDS011;6445;52.490;13.378;2024-01-16T03:41:55;3.63;;;2.28;;
12762;SDS011;6445;52.490;13.378;2024-01-16T03:44:21;4.55;;;2.38;;
12762;SDS011;6445;52.490;13.378;2024-01-16T03:46:46;5.85;;;2.50;;
12762;SDS011;6445;52.490;13.378;2024-01-16T03:49:11;4.85;;;2.50;;
12762;SDS011;6445;52.490;13.378;2024-01-16T03:51:36;4.05;;;2.50;;
12762;SDS011;6445;52.490;13.378;2024-01-16T03:54:02;5.82;;;2.50;;
12762;SDS011;6445;52.490;13.378;2024-01-16T03:56:27;5.38;;;2.50;;
12762;SDS011;6445;52.490;13.378;2024-01-16T03:58:53;5.13;;;2.58;;
12762;SDS011;6445;52.490;13.378;2024-01-16T04:01:18;2.92;;;2.38;;
12762;SDS011;6445;52.490;13.378;2024-01-16T04:03:43;5.22;;;2.83;;
12762;SDS011;6445;52.490;13.378;2024-01-16T04:06:15;7.72;;;2.45;;
12762;SDS011;6445;52.490;13.378;2024-01-16T04:08:41;4.57;;;2.90;;
12762;SDS011;6445;52.490;13.378;2024-01-16T04:11:11;4.32;;;2.80;;
12762;SDS011;6445;52.490;13.378;2024-01-16T04:13:37;7.78;;;2.97;;
12762;SDS011;6445;52.490;13.378;2024-01-16T04:16:02;5.90;;;3.08;;
12762;SDS011;6445;52.490;13.378;2024-01-16T04:18:27;4.35;;;2.80;;
12762;SDS011;6445;52.490;13.378;2024-01-16T04:20:53;9.88;;;4.35;;
12762;SDS011;6445;52.490;13.378;2024-01-16T04:23:18;4.80;;;2.90;;
12762;SDS011;6445;52.490;13.378;2024-01-16T04:25:43;5.95;;;2.88;;
12762;SDS011;6445;52.490;13.378;2024-01-16T04:28:08;5.57;;;2.95;;
12762;SDS011;6445;52.490;13.378;2024-01-16T04:30:34;7.72;;;3.25;;
12762;SDS011;6445;52.490;13.378;2024-01-16T04:32:59;6.80;;;2.88;;
12762;SDS011;6445;52.490;13.378;2024-01-16T04:35:24;4.85;;;2.95;;
12762;SDS011;6445;52.490;13.378;2024-01-16T04:37:49;5.20;;;3.03;;
12762;SDS011;6445;52.490;13.378;2024-01-16T04:40:15;7.25;;;2.90;;
12762;SDS011;6445;52.490;13.378;2024-01-16T04:42:40;7.18;;;3.42;;
12762;SDS011;6445;52.490;13.378;2024-01-16T04:45:05;6.13;;;3.30;;
12762;SDS011;6445;52.490;13.378;2024-01-16T04:47:31;6.22;;;2.92;;
12762;SDS011;6445;52.490;13.378;2024-01-16T04:49:56;8.35;;;3.28;;
12762;SDS011;6445;52.490;13.378;2024-01-16T04:52:21;5.50;;;2.95;;
12762;SDS011;6445;52.490;13.378;2024-01-16T04:54:46;5.18;;;2.95;;
12762;SDS011;6445;52.490;13.378;2024-01-16T04:57:12;6.00;;;3.30;;
12762;SDS011;6445;52.490;13.378;2024-01-16T04:59:37;7.47;;;2.90;;
12762;SDS011;6445;52.490;13.378;2024-01-16T05:02:02;7.95;;;3.38;;
12762;SDS011;6445;52.490;13.378;2024-01-16T05:04:28;8.45;;;2.88;;
12762;SDS011;6445;52.490;13.378;2024-01-16T05:06:53;7.00;;;3.20;;
12762;SDS011;6445;52.490;13.378;2024-01-16T05:09:18;4.22;;;2.80;;
12762;SDS011;6445;52.490;13.378;2024-01-16T05:11:46;5.47;;;3.00;;
12762;SDS011;6445;52.490;13.378;2024-01-16T05:14:11;6.93;;;3.17;;
12762;SDS011;6445;52.490;13.378;2024-01-16T05:16:37;6.63;;;3.15;;
12762;SDS011;6445;52.490;13.378;2024-01-16T05:19:02;4.72;;;2.92;;
12762;SDS011;6445;52.490;13.378;2024-01-16T05:21:27;5.65;;;3.20;;
12762;SDS011;6445;52.490;13.378;2024-01-16T05:23:53;6.38;;;3.38;;
12762;SDS011;6445;52.490;13.378;2024-01-16T05:26:18;8.15;;;3.90;;
12762;SDS011;6445;52.490;13.378;2024-01-16T05:28:43;9.32;;;3.80;;
12762;SDS011;6445;52.490;13.378;2024-01-16T05:31:08;8.80;;;4.25;;
12762;SDS011;6445;52.490;13.378;2024-01-16T05:33:34;8.68;;;4.07;;
12762;SDS011;6445;52.490;13.378;2024-01-16T05:35:59;9.00;;;4.18;;
12762;SDS011;6445;52.490;13.378;2024-01-16T05:38:24;7.15;;;4.10;;
12762;SDS011;6445;52.490;13.378;2024-01-16T05:40:50;5.82;;;4.15;;
12762;SDS011;6445;52.490;13.378;2024-01-16T05:43:15;9.45;;;4.35;;
12762;SDS011;6445;52.490;13.378;2024-01-16T05:45:40;8.40;;;4.45;;
12762;SDS011;6445;52.490;13.378;2024-01-16T05:48:05;6.45;;;4.30;;
12762;SDS011;6445;52.490;13.378;2024-01-16T05:50:33;5.70;;;3.63;;
12762;SDS011;6445;52.490;13.378;2024-01-16T05:52:59;5.65;;;3.83;;
12762;SDS011;6445;52.490;13.378;2024-01-16T05:55:24;5.45;;;3.85;;
12762;SDS011;6445;52.490;13.378;2024-01-16T05:57:49;8.32;;;4.68;;
12762;SDS011;6445;52.490;13.378;2024-01-16T06:00:14;6.47;;;4.38;;
12762;SDS011;6445;52.490;13.378;2024-01-16T06:02:42;9.70;;;4.95;;
12762;SDS011;6445;52.490;13.378;2024-01-16T06:05:08;9.85;;;5.05;;
12762;SDS011;6445;52.490;13.378;2024-01-16T06:07:33;7.32;;;4.75;;
12762;SDS011;6445;52.490;13.378;2024-01-16T06:09:58;9.30;;;5.18;;
12762;SDS011;6445;52.490;13.378;2024-01-16T06:12:24;8.38;;;4.95;;
12762;SDS011;6445;52.490;13.378;2024-01-16T06:14:49;8.98;;;4.95;;
12762;SDS011;6445;52.490;13.378;2024-01-16T06:17:14;10.98;;;5.03;;
12762;SDS011;6445;52.490;13.378;2024-01-16T06:19:39;12.63;;;4.68;;
12762;SDS011;6445;52.490;13.378;2024-01-16T06:22:05;9.70;;;5.40;;
12762;SDS011;6445;52.490;13.378;2024-01-16T06:24:30;8.63;;;5.13;;
12762;SDS011;6445;52.490;13.378;2024-01-16T06:27:01;9.18;;;4.75;;
12762;SDS011;6445;52.490;13.378;2024-01-16T06:29:26;9.43;;;5.72;;
12762;SDS011;6445;52.490;13.378;2024-01-16T06:31:52;7.93;;;5.55;;
12762;SDS011;6445;52.490;13.378;2024-01-16T06:34:17;11.02;;;5.93;;
12762;SDS011;6445;52.490;13.378;2024-01-16T06:36:42;12.13;;;5.70;;
12762;SDS011;6445;52.490;13.378;2024-01-16T06:39:08;8.43;;;5.47;;
12762;SDS011;6445;52.490;13.378;2024-01-16T06:41:33;14.25;;;5.65;;
12762;SDS011;6445;52.490;13.378;2024-01-16T06:43:58;10.68;;;6.35;;
12762;SDS011;6445;52.490;13.378;2024-01-16T06:46:24;11.07;;;6.03;;
12762;SDS011;6445;52.490;13.378;2024-01-16T06:48:50;11.57;;;6.25;;
12762;SDS011;6445;52.490;13.378;2024-01-16T06:51:15;9.38;;;6.07;;
12762;SDS011;6445;52.490;13.378;2024-01-16T06:53:41;10.27;;;5.32;;
12762;SDS011;6445;52.490;13.378;2024-01-16T06:56:06;8.68;;;5.13;;
12762;SDS011;6445;52.490;13.378;2024-01-16T06:58:32;9.25;;;5.63;;
12762;SDS011;6445;52.490;13.378;2024-01-16T07:00:58;12.48;;;5.35;;
12762;SDS011;6445;52.490;13.378;2024-01-16T07:03:25;14.35;;;5.70;;
12762;SDS011;6445;52.490;13.378;2024-01-16T07:05:50;13.98;;;6.53;;
12762;SDS011;6445;52.490;13.378;2024-01-16T07:08:15;9.93;;;6.18;;
12762;SDS011;6445;52.490;13.378;2024-01-16T07:10:41;15.70;;;6.05;;
12762;SDS011;6445;52.490;13.378;2024-01-16T07:13:06;8.63;;;5.45;;
12762;SDS011;6445;52.490;13.378;2024-01-16T07:15:32;11.80;;;5.57;;
12762;SDS011;6445;52.490;13.378;2024-01-16T07:17:57;11.30;;;5.03;;
12762;SDS011;6445;52.490;13.378;2024-01-16T07:20:23;11.85;;;5.30;;
12762;SDS011;6445;52.490;13.378;2024-01-16T07:22:48;10.95;;;5.90;;
12762;SDS011;6445;52.490;13.378;2024-01-16T07:25:13;10.25;;;5.50;;
12762;SDS011;6445;52.490;13.378;2024-01-16T07:27:39;9.18;;;5.82;;
12762;SDS011;6445;52.490;13.378;2024-01-16T07:30:05;14.07;;;6.78;;
12762;SDS011;6445;52.490;13.378;2024-01-16T07:32:31;8.85;;;5.82;;
12762;SDS011;6445;52.490;13.378;2024-01-16T07:34:57;10.10;;;5.78;;
12762;SDS011;6445;52.490;13.378;2024-01-16T07:37:22;12.07;;;5.72;;
12762;SDS011;6445;52.490;13.378;2024-01-16T07:39:48;9.93;;;5.63;;
12762;SDS011;6445;52.490;13.378;2024-01-16T07:42:13;11.85;;;5.78;;
12762;SDS011;6445;52.490;13.378;2024-01-16T07:44:39;11.70;;;5.85;;
12762;SDS011;6445;52.490;13.378;2024-01-16T07:47:04;10.18;;;5.72;;
12762;SDS011;6445;52.490;13.378;2024-01-16T07:49:30;14.82;;;6.68;;
12762;SDS011;6445;52.490;13.378;2024-01-16T07:51:55;13.77;;;5.93;;
12762;SDS011;6445;52.490;13.378;2024-01-16T07:54:20;9.00;;;5.45;;
12762;SDS011;6445;52.490;13.378;2024-01-16T07:56:46;10.77;;;5.50;;
12762;SDS011;6445;52.490;13.378;2024-01-16T07:59:11;12.52;;;5.68;;
12762;SDS011;6445;52.490;13.378;2024-01-16T08:01:36;12.77;;;5.35;;
12762;SDS011;6445;52.490;13.378;2024-01-16T08:04:02;10.48;;;5.45;;
12762;SDS011;6445;52.490;13.378;2024-01-16T08:06:28;11.73;;;5.43;;
12762;SDS011;6445;52.490;13.378;2024-01-16T08:08:53;9.88;;;5.13;;
12762;SDS011;6445;52.490;13.378;2024-01-16T08:11:19;10.32;;;5.47;;
12762;SDS011;6445;52.490;13.378;2024-01-16T08:13:45;15.50;;;7.50;;
12762;SDS011;6445;52.490;13.378;2024-01-16T08:16:10;9.15;;;4.90;;
12762;SDS011;6445;52.490;13.378;2024-01-16T08:18:36;9.77;;;4.82;;
12762;SDS011;6445;52.490;13.378;2024-01-16T08:21:01;8.77;;;4.78;;
12762;SDS011;6445;52.490;13.378;2024-01-16T08:23:27;9.88;;;5.43;;
12762;SDS011;6445;52.490;13.378;2024-01-16T08:25:52;10.07;;;5.05;;
12762;SDS011;6445;52.490;13.378;2024-01-16T08:28:18;9.02;;;5.57;;
12762;SDS011;6445;52.490;13.378;2024-01-16T08:30:43;8.70;;;5.07;;
12762;SDS011;6445;52.490;13.378;2024-01-16T08:33:09;10.10;;;5.55;;
12762;SDS011;6445;52.490;13.378;2024-01-16T08:35:36;10.88;;;5.47;;
12762;SDS011;6445;52.490;13.378;2024-01-16T08:38:02;10.25;;;5.50;;
12762;SDS011;6445;52.490;13.378;2024-01-16T08:40:27;10.63;;;5.78;;
12762;SDS011;6445;52.490;13.378;2024-01-16T08:42:53;12.32;;;6.03;;
12762;SDS011;6445;52.490;13.378;2024-01-16T08:45:23;9.23;;;5.80;;
12762;SDS011;6445;52.490;13.378;2024-01-16T08:47:49;10.02;;;6.03;;
12762;SDS011;6445;52.490;13.378;2024-01-16T08:50:17;12.77;;;5.93;;
12762;SDS011;6445;52.490;13.378;2024-01-16T08:52:42;14.23;;;6.72;;
12762;SDS011;6445;52.490;13.378;2024-01-16T08:55:08;17.05;;;6.72;;
12762;SDS011;6445;52.490;13.378;2024-01-16T08:57:34;11.13;;;5.75;;
12762;SDS011;6445;52.490;13.378;2024-01-16T09:00:00;10.38;;;5.70;;
12762;SDS011;6445;52.490;13.378;2024-01-16T09:02:28;22.63;;;11.80;;
12762;SDS011;6445;52.490;13.378;2024-01-16T09:04:54;12.50;;;6.57;;
12762;SDS011;6445;52.490;13.378;2024-01-16T09:07:19;8.60;;;5.78;;
12762;SDS011;6445;52.490;13.378;2024-01-16T09:09:45;11.60;;;6.30;;
12762;SDS011;6445;52.490;13.378;2024-01-16T09:12:10;13.60;;;6.13;;
12762;SDS011;6445;52.490;13.378;2024-01-16T09:14:35;12.88;;;7.15;;
12762;SDS011;6445;52.490;13.378;2024-01-16T09:17:00;14.23;;;6.22;;
12762;SDS011;6445;52.490;13.378;2024-01-16T09:19:26;14.77;;;6.65;;
12762;SDS011;6445;52.490;13.378;2024-01-16T09:21:51;13.00;;;6.53;;
12762;SDS011;6445;52.490;13.378;2024-01-16T09:24:17;14.73;;;6.57;;
12762;SDS011;6445;52.490;13.378;2024-01-16T09:26:43;10.23;;;6.13;;
12762;SDS011;6445;52.490;13.378;2024-01-16T09:29:09;9.68;;;6.22;;
12762;SDS011;6445;52.490;13.378;2024-01-16T09:31:34;13.90;;;6.18;;
12762;SDS011;6445;52.490;13.378;2024-01-16T09:34:00;9.23;;;5.95;;
12762;SDS011;6445;52.490;13.378;2024-01-16T09:36:25;12.73;;;6.70;;
12762;SDS011;6445;52.490;13.378;2024-01-16T09:38:51;12.93;;;7.63;;
12762;SDS011;6445;52.490;13.378;2024-01-16T09:41:16;10.48;;;6.05;;
12762;SDS011;6445;52.490;13.378;2024-01-16T09:43:41;11.18;;;6.80;;
12762;SDS011;6445;52.490;13.378;2024-01-16T09:46:09;10.68;;;6.78;;
12762;SDS011;6445;52.490;13.378;2024-01-16T09:48:36;16.05;;;9.63;;
12762;SDS011;6445;52.490;13.378;2024-01-16T09:51:01;12.20;;;7.05;;
12762;SDS011;6445;52.490;13.378;2024-01-16T09:53:27;12.68;;;6.63;;
12762;SDS011;6445;52.490;13.378;2024-01-16T09:55:53;11.02;;;7.10;;
12762;SDS011;6445;52.490;13.378;2024-01-16T09:58:20;22.25;;;11.27;;
12762;SDS011;6445;52.490;13.378;2024-01-16T10:00:46;11.93;;;6.38;;
12762;SDS011;6445;52.490;13.378;2024-01-16T10:03:13;10.55;;;7.10;;
12762;SDS011;6445;52.490;13.378;2024-01-16T10:05:42;9.57;;;6.80;;
12762;SDS011;6445;52.490;13.378;2024-01-16T10:08:08;12.63;;;6.55;;
12762;SDS011;6445;52.490;13.378;2024-01-16T10:10:33;9.52;;;6.15;;
12762;SDS011;6445;52.490;13.378;2024-01-16T10:12:59;12.85;;;6.90;;
12762;SDS011;6445;52.490;13.378;2024-01-16T10:15:24;11.77;;;6.85;;
12762;SDS011;6445;52.490;13.378;2024-01-16T10:17:50;13.98;;;7.35;;
12762;SDS011;6445;52.490;13.378;2024-01-16T10:20:15;11.05;;;7.22;;
12762;SDS011;6445;52.490;13.378;2024-01-16T10:22:52;13.57;;;7.03;;
12762;SDS011;6445;52.490;13.378;2024-01-16T10:25:18;12.30;;;6.57;;
12762;SDS011;6445;52.490;13.378;2024-01-16T10:27:46;12.70;;;6.32;;
12762;SDS011;6445;52.490;13.378;2024-01-16T10:30:12;9.57;;;5.85;;
12762;SDS011;6445;52.490;13.378;2024-01-16T10:32:38;11.40;;;5.70;;
12762;SDS011;6445;52.490;13.378;2024-01-16T10:35:12;14.23;;;5.97;;
12762;SDS011;6445;52.490;13.378;2024-01-16T10:37:51;9.77;;;5.70;;
12762;SDS011;6445;52.490;13.378;2024-01-16T10:40:19;13.13;;;5.60;;
12762;SDS011;6445;52.490;13.378;2024-01-16T10:42:45;10.05;;;5.60;;
12762;SDS011;6445;52.490;13.378;2024-01-16T10:45:32;9.80;;;5.60;;
12762;SDS011;6445;52.490;13.378;2024-01-16T10:48:07;10.27;;;4.88;;
12762;SDS011;6445;52.490;13.378;2024-01-16T10:50:33;9.43;;;4.72;;
12762;SDS011;6445;52.490;13.378;2024-01-16T10:53:00;8.45;;;4.43;;
12762;SDS011;6445;52.490;13.378;2024-01-16T10:55:29;11.35;;;4.28;;
12762;SDS011;6445;52.490;13.378;2024-01-16T10:57:58;8.00;;;4.22;;
12762;SDS011;6445;52.490;13.378;2024-01-16T11:00:25;8.77;;;4.07;;
12762;SDS011;6445;52.490;13.378;2024-01-16T11:03:05;6.90;;;3.75;;
12762;SDS011;6445;52.490;13.378;2024-01-16T11:05:32;4.95;;;3.15;;
12762;SDS011;6445;52.490;13.378;2024-01-16T11:07:59;8.50;;;3.47;;
12762;SDS011;6445;52.490;13.378;2024-01-16T11:10:28;6.18;;;2.90;;
12762;SDS011;6445;52.490;13.378;2024-01-16T11:12:55;7.72;;;3.50;;
12762;SDS011;6445;52.490;13.378;2024-01-16T11:15:24;7.75;;;2.85;;
12762;SDS011;6445;52.490;13.378;2024-01-16T11:17:50;8.02;;;2.90;;
12762;SDS011;6445;52.490;13.378;2024-01-16T11:20:16;6.60;;;3.00;;
12762;SDS011;6445;52.490;13.378;2024-01-16T11:22:43;8.43;;;3.08;;
12762;SDS011;6445;52.490;13.378;2024-01-16T11:25:10;12.32;;;3.17;;
12762;SDS011;6445;52.490;13.378;2024-01-16T11:27:37;8.07;;;3.50;;
12762;SDS011;6445;52.490;13.378;2024-01-16T11:30:03;11.15;;;3.15;;
12762;SDS011;6445;52.490;13.378;2024-01-16T11:32:34;6.82;;;3.25;;
12762;SDS011;6445;52.490;13.378;2024-01-16T11:35:00;6.85;;;2.97;;
12762;SDS011;6445;52.490;13.378;2024-01-16T11:37:29;8.00;;;3.53;;
12762;SDS011;6445;52.490;13.378;2024-01-16T11:42:47;8.55;;;4.00;;
12762;SDS011;6445;52.490;13.378;2024-01-16T11:50:35;11.13;;;4.72;;
12762;SDS011;6445;52.490;13.378;2024-01-16T11:53:01;9.48;;;4.40;;
12762;SDS011;6445;52.490;13.378;2024-01-16T12:01:02;10.80;;;4.93;;
12762;SDS011;6445;52.490;13.378;2024-01-16T12:03:29;10.35;;;5.00;;
12762;SDS011;6445;52.490;13.378;2024-01-16T12:05:55;11.18;;;5.45;;
12762;SDS011;6445;52.490;13.378;2024-01-16T12:08:24;10.32;;;4.70;;
12762;SDS011;6445;52.490;13.378;2024-01-16T12:10:50;16.20;;;5.93;;
12762;SDS011;6445;52.490;13.378;2024-01-16T12:13:15;16.90;;;6.32;;
12762;SDS011;6445;52.490;13.378;2024-01-16T12:15:41;10.48;;;5.25;;
12762;SDS011;6445;52.490;13.378;2024-01-16T12:18:07;12.10;;;5.45;;
12762;SDS011;6445;52.490;13.378;2024-01-16T12:20:33;9.02;;;5.15;;
12762;SDS011;6445;52.490;13.378;2024-01-16T12:23:00;12.95;;;5.55;;
12762;SDS011;6445;52.490;13.378;2024-01-16T12:25:30;10.40;;;5.93;;
12762;SDS011;6445;52.490;13.378;2024-01-16T12:28:01;13.27;;;5.55;;
12762;SDS011;6445;52.490;13.378;2024-01-16T12:30:34;9.00;;;5.20;;
12762;SDS011;6445;52.490;13.378;2024-01-16T12:33:04;8.93;;;5.13;;
12762;SDS011;6445;52.490;13.378;2024-01-16T12:35:34;14.90;;;5.43;;
12762;SDS011;6445;52.490;13.378;2024-01-16T12:38:12;12.90;;;5.55;;
12762;SDS011;6445;52.490;13.378;2024-01-16T12:40:42;13.57;;;5.60;;
12762;SDS011;6445;52.490;13.378;2024-01-16T12:43:19;14.27;;;4.85;;
12762;SDS011;6445;52.490;13.378;2024-01-16T12:45:45;13.02;;;5.78;;
12762;SDS011;6445;52.490;13.378;2024-01-16T12:48:10;16.60;;;5.97;;
12762;SDS011;6445;52.490;13.378;2024-01-16T12:50:36;14.52;;;5.97;;
12762;SDS011;6445;52.490;13.378;2024-01-16T12:53:02;12.32;;;5.35;;
12762;SDS011;6445;52.490;13.378;2024-01-16T12:55:29;13.48;;;5.03;;
12762;SDS011;6445;52.490;13.378;2024-01-16T12:58:12;9.55;;;5.53;;
12762;SDS011;6445;52.490;13.378;2024-01-16T13:00:37;11.77;;;5.28;;
12762;SDS011;6445;52.490;13.378;2024-01-16T13:03:04;10.77;;;5.10;;
12762;SDS011;6445;52.490;13.378;2024-01-16T13:05:29;12.02;;;5.32;;
12762;SDS011;6445;52.490;13.378;2024-01-16T13:08:04;14.93;;;6.40;;
12762;SDS011;6445;52.490;13.378;2024-01-16T13:10:30;13.30;;;5.15;;
12762;SDS011;6445;52.490;13.378;2024-01-16T13:13:12;11.18;;;4.72;;
12762;SDS011;6445;52.490;13.378;2024-01-16T13:15:39;10.90;;;4.85;;
12762;SDS011;6445;52.490;13.378;2024-01-16T13:18:05;9.18;;;4.60;;
12762;SDS011;6445;52.490;13.378;2024-01-16T13:20:30;14.80;;;4.60;;
12762;SDS011;6445;52.490;13.378;2024-01-16T13:22:57;10.57;;;4.90;;
12762;SDS011;6445;52.490;13.378;2024-01-16T13:25:22;9.25;;;4.45;;
12762;SDS011;6445;52.490;13.378;2024-01-16T13:27:47;9.05;;;4.32;;
12762;SDS011;6445;52.490;13.378;2024-01-16T13:30:12;7.40;;;3.90;;
12762;SDS011;6445;52.490;13.378;2024-01-16T13:32:39;12.32;;;4.68;;
12762;SDS011;6445;52.490;13.378;2024-01-16T13:35:04;9.90;;;4.28;;
12762;SDS011;6445;52.490;13.378;2024-01-16T13:37:33;12.45;;;4.20;;
12762;SDS011;6445;52.490;13.378;2024-01-16T13:40:02;11.93;;;4.15;;
12762;SDS011;6445;52.490;13.378;2024-01-16T13:42:28;11.63;;;4.15;;
12762;SDS011;6445;52.490;13.378;2024-01-16T13:44:53;7.10;;;3.67;;
12762;SDS011;6445;52.490;13.378;2024-01-16T13:47:19;10.32;;;3.90;;
12762;SDS011;6445;52.490;13.378;2024-01-16T13:49:44;9.55;;;3.95;;
12762;SDS011;6445;52.490;13.378;2024-01-16T13:52:09;10.55;;;4.30;;
12762;SDS011;6445;52.490;13.378;2024-01-16T13:54:36;12.35;;;3.83;;
12762;SDS011;6445;52.490;13.378;2024-01-16T13:57:03;12.85;;;4.47;;
12762;SDS011;6445;52.490;13.378;2024-01-16T13:59:32;11.35;;;4.13;;
12762;SDS011;6445;52.490;13.378;2024-01-16T14:01:57;8.25;;;3.55;;
12762;SDS011;6445;52.490;13.378;2024-01-16T14:04:22;7.18;;;3.47;;
12762;SDS011;6445;52.490;13.378;2024-01-16T14:06:48;9.68;;;3.95;;
12762;SDS011;6445;52.490;13.378;2024-01-16T14:09:13;7.78;;;4.07;;
12762;SDS011;6445;52.490;13.378;2024-01-16T14:11:39;14.60;;;4.13;;
12762;SDS011;6445;52.490;13.378;2024-01-16T14:14:04;7.55;;;3.53;;
12762;SDS011;6445;52.490;13.378;2024-01-16T14:16:30;6.47;;;3.55;;
12762;SDS011;6445;52.490;13.378;2024-01-16T14:18:55;9.38;;;3.67;;
12762;SDS011;6445;52.490;13.378;2024-01-16T14:21:20;12.23;;;4.10;;
12762;SDS011;6445;52.490;13.378;2024-01-16T14:23:46;11.32;;;4.00;;
12762;SDS011;6445;52.490;13.378;2024-01-16T14:26:11;12.13;;;3.70;;
12762;SDS011;6445;52.490;13.378;2024-01-16T14:28:36;8.63;;;3.72;;
12762;SDS011;6445;52.490;13.378;2024-01-16T14:31:02;13.50;;;4.30;;
12762;SDS011;6445;52.490;13.378;2024-01-16T14:33:27;5.85;;;3.65;;
12762;SDS011;6445;52.490;13.378;2024-01-16T14:35:52;11.60;;;3.90;;
12762;SDS011;6445;52.490;13.378;2024-01-16T14:38:18;10.82;;;4.43;;
12762;SDS011;6445;52.490;13.378;2024-01-16T14:40:43;6.15;;;4.20;;
12762;SDS011;6445;52.490;13.378;2024-01-16T14:43:08;10.48;;;3.85;;
12762;SDS011;6445;52.490;13.378;2024-01-16T14:45:33;9.00;;;3.50;;
12762;SDS011;6445;52.490;13.378;2024-01-16T14:47:59;12.93;;;4.90;;
12762;SDS011;6445;52.490;13.378;2024-01-16T14:50:25;11.95;;;4.20;;